sensor_id;sensor_type;location;lat;lon;timestamp;P1;durP1;ratioP1;P2;durP2;ratioP2
48911;SDS011;34722;52.108;5.044;2023-03-14T00:01:22;22.65;;;4.55;;
48911;SDS011;34722;52.108;5.044;2023-03-14T00:03:49;15.60;;;3.08;;
48911;SDS011;34722;52.108;5.044;2023-03-14T00:06:15;20.10;;;4.47;;
48911;SDS011;34722;52.108;5.044;2023-03-14T00:08:42;17.70;;;4.85;;
48911;SDS011;34722;52.108;5.044;2023-03-14T00:11:10;18.95;;;3.95;;
48911;SDS011;34722;52.108;5.044;2023-03-14T00:13:40;19.98;;;3.55;;
48911;SDS011;34722;52.108;5.044;2023-03-14T00:16:10;17.48;;;3.28;;
48911;SDS011;34722;52.108;5.044;2023-03-14T00:18:37;28.63;;;5.15;;
48911;SDS011;34722;52.108;5.044;2023-03-14T00:21:04;32.78;;;6.30;;
48911;SDS011;34722;52.108;5.044;2023-03-14T00:23:32;27.83;;;5.60;;
48911;SDS011;34722;52.108;5.044;2023-03-14T00:26:02;24.85;;;6.70;;
48911;SDS011;34722;52.108;5.044;2023-03-14T00:28:33;21.27;;;5.60;;
48911;SDS011;34722;52.108;5.044;2023-03-14T00:30:59;25.65;;;4.88;;
48911;SDS011;34722;52.108;5.044;2023-03-14T00:33:28;20.63;;;4.45;;
48911;SDS011;34722;52.108;5.044;2023-03-14T00:35:57;26.13;;;5.20;;
48911;SDS011;34722;52.108;5.044;2023-03-14T00:38:31;15.85;;;3.72;;
48911;SDS011;34722;52.108;5.044;2023-03-14T00:40:57;17.10;;;4.10;;
48911;SDS011;34722;52.108;5.044;2023-03-14T00:43:24;12.52;;;2.78;;
48911;SDS011;34722;52.108;5.044;2023-03-14T00:45:50;14.75;;;3.10;;
48911;SDS011;34722;52.108;5.044;2023-03-14T00:48:17;13.93;;;2.63;;
48911;SDS011;34722;52.108;5.044;2023-03-14T00:50:44;11.55;;;2.78;;
48911;SDS011;34722;52.108;5.044;2023-03-14T00:53:10;7.18;;;2.42;;
48911;SDS011;34722;52.108;5.044;2023-03-14T00:55:38;24.30;;;3.63;;
48911;SDS011;34722;52.108;5.044;2023-03-14T00:58:04;11.77;;;2.88;;
48911;SDS011;34722;52.108;5.044;2023-03-14T01:00:31;8.68;;;2.88;;
48911;SDS011;34722;52.108;5.044;2023-03-14T01:02:57;12.25;;;3.13;;
48911;SDS011;34722;52.108;5.044;2023-03-14T01:05:23;15.50;;;4.93;;
48911;SDS011;34722;52.108;5.044;2023-03-14T01:07:49;17.88;;;4.43;;
48911;SDS011;34722;52.108;5.044;2023-03-14T01:10:15;11.65;;;3.42;;
48911;SDS011;34722;52.108;5.044;2023-03-14T01:12:41;12.27;;;3.42;;
48911;SDS011;34722;52.108;5.044;2023-03-14T01:15:08;13.95;;;4.70;;
48911;SDS011;34722;52.108;5.044;2023-03-14T01:17:34;10.82;;;3.75;;
48911;SDS011;34722;52.108;5.044;2023-03-14T01:20:06;15.02;;;4.13;;
48911;SDS011;34722;52.108;5.044;2023-03-14T01:22:36;15.82;;;3.83;;
48911;SDS011;34722;52.108;5.044;2023-03-14T01:25:18;11.60;;;2.72;;
48911;SDS011;34722;52.108;5.044;2023-03-14T01:27:44;12.45;;;3.20;;
48911;SDS011;34722;52.108;5.044;2023-03-14T01:30:10;14.10;;;3.90;;
48911;SDS011;34722;52.108;5.044;2023-03-14T01:32:37;14.65;;;3.78;;
48911;SDS011;34722;52.108;5.044;2023-03-14T01:35:03;16.67;;;3.22;;
48911;SDS011;34722;52.108;5.044;2023-03-14T01:37:29;16.17;;;3.10;;
48911;SDS011;34722;52.108;5.044;2023-03-14T01:39:55;13.75;;;3.63;;
48911;SDS011;34722;52.108;5.044;2023-03-14T01:42:20;13.77;;;3.35;;
48911;SDS011;34722;52.108;5.044;2023-03-14T01:44:56;14.07;;;3.17;;
48911;SDS011;34722;52.108;5.044;2023-03-14T01:47:24;14.75;;;3.63;;
48911;SDS011;34722;52.108;5.044;2023-03-14T01:49:52;18.20;;;3.63;;
48911;SDS011;34722;52.108;5.044;2023-03-14T01:52:24;15.32;;;3.20;;
48911;SDS011;34722;52.108;5.044;2023-03-14T01:55:21;12.65;;;2.80;;
48911;SDS011;34722;52.108;5.044;2023-03-14T01:57:54;17.27;;;3.15;;
48911;SDS011;34722;52.108;5.044;2023-03-14T02:00:24;13.02;;;2.50;;
48911;SDS011;34722;52.108;5.044;2023-03-14T02:02:51;18.05;;;2.97;;
48911;SDS011;34722;52.108;5.044;2023-03-14T02:05:30;14.02;;;2.42;;
48911;SDS011;34722;52.108;5.044;2023-03-14T02:10:31;19.40;;;3.75;;
48911;SDS011;34722;52.108;5.044;2023-03-14T02:13:04;8.73;;;2.13;;
48911;SDS011;34722;52.108;5.044;2023-03-14T02:15:30;16.35;;;2.50;;
48911;SDS011;34722;52.108;5.044;2023-03-14T02:17:57;13.80;;;2.55;;
48911;SDS011;34722;52.108;5.044;2023-03-14T02:20:32;15.13;;;2.22;;
48911;SDS011;34722;52.108;5.044;2023-03-14T02:23:07;6.40;;;1.48;;
48911;SDS011;34722;52.108;5.044;2023-03-14T02:28:10;12.77;;;2.10;;
48911;SDS011;34722;52.108;5.044;2023-03-14T02:30:40;14.77;;;2.35;;
48911;SDS011;34722;52.108;5.044;2023-03-14T02:33:13;8.50;;;1.95;;
48911;SDS011;34722;52.108;5.044;2023-03-14T02:35:44;15.32;;;2.80;;
48911;SDS011;34722;52.108;5.044;2023-03-14T02:38:18;10.23;;;1.63;;
48911;SDS011;34722;52.108;5.044;2023-03-14T02:44:07;11.68;;;2.75;;
48911;SDS011;34722;52.108;5.044;2023-03-14T02:46:33;16.23;;;3.10;;
48911;SDS011;34722;52.108;5.044;2023-03-14T02:55:44;10.43;;;2.58;;
48911;SDS011;34722;52.108;5.044;2023-03-14T02:58:46;9.00;;;2.20;;
48911;SDS011;34722;52.108;5.044;2023-03-14T03:01:25;11.52;;;3.05;;
48911;SDS011;34722;52.108;5.044;2023-03-14T03:07:38;14.23;;;3.17;;
48911;SDS011;34722;52.108;5.044;2023-03-14T03:10:06;21.52;;;3.55;;
48911;SDS011;34722;52.108;5.044;2023-03-14T03:12:36;11.95;;;2.67;;
48911;SDS011;34722;52.108;5.044;2023-03-14T03:15:03;9.25;;;2.75;;
48911;SDS011;34722;52.108;5.044;2023-03-14T03:17:30;15.88;;;3.00;;
48911;SDS011;34722;52.108;5.044;2023-03-14T03:23:27;18.38;;;4.32;;
48911;SDS011;34722;52.108;5.044;2023-03-14T03:26:35;19.33;;;3.80;;
48911;SDS011;34722;52.108;5.044;2023-03-14T03:29:01;9.77;;;3.50;;
48911;SDS011;34722;52.108;5.044;2023-03-14T03:31:27;18.52;;;2.78;;
48911;SDS011;34722;52.108;5.044;2023-03-14T03:33:53;14.43;;;3.47;;
48911;SDS011;34722;52.108;5.044;2023-03-14T03:38:56;17.25;;;3.67;;
48911;SDS011;34722;52.108;5.044;2023-03-14T03:41:22;15.13;;;2.83;;
48911;SDS011;34722;52.108;5.044;2023-03-14T03:43:48;14.70;;;2.90;;
48911;SDS011;34722;52.108;5.044;2023-03-14T03:46:14;13.43;;;3.05;;
48911;SDS011;34722;52.108;5.044;2023-03-14T03:48:40;16.33;;;2.53;;
48911;SDS011;34722;52.108;5.044;2023-03-14T03:51:13;17.15;;;2.97;;
48911;SDS011;34722;52.108;5.044;2023-03-14T03:53:41;21.52;;;3.42;;
48911;SDS011;34722;52.108;5.044;2023-03-14T03:56:07;12.88;;;2.78;;
48911;SDS011;34722;52.108;5.044;2023-03-14T03:58:44;17.15;;;3.83;;
48911;SDS011;34722;52.108;5.044;2023-03-14T04:10:35;15.23;;;2.95;;
48911;SDS011;34722;52.108;5.044;2023-03-14T04:13:04;8.98;;;2.40;;
48911;SDS011;34722;52.108;5.044;2023-03-14T04:15:30;10.88;;;2.80;;
48911;SDS011;34722;52.108;5.044;2023-03-14T04:17:58;18.08;;;3.63;;
48911;SDS011;34722;52.108;5.044;2023-03-14T04:20:24;11.20;;;3.35;;
48911;SDS011;34722;52.108;5.044;2023-03-14T04:22:50;8.65;;;2.30;;
48911;SDS011;34722;52.108;5.044;2023-03-14T04:25:16;17.05;;;2.97;;
48911;SDS011;34722;52.108;5.044;2023-03-14T04:27:44;11.70;;;2.70;;
48911;SDS011;34722;52.108;5.044;2023-03-14T04:30:13;16.48;;;2.95;;
48911;SDS011;34722;52.108;5.044;2023-03-14T04:32:39;11.02;;;2.85;;
48911;SDS011;34722;52.108;5.044;2023-03-14T04:35:05;11.73;;;2.70;;
48911;SDS011;34722;52.108;5.044;2023-03-14T04:37:31;23.95;;;3.03;;
48911;SDS011;34722;52.108;5.044;2023-03-14T04:39:57;11.15;;;3.95;;
48911;SDS011;34722;52.108;5.044;2023-03-14T04:42:23;15.57;;;3.65;;
48911;SDS011;34722;52.108;5.044;2023-03-14T04:44:49;9.13;;;2.70;;
48911;SDS011;34722;52.108;5.044;2023-03-14T04:47:33;15.38;;;2.95;;
48911;SDS011;34722;52.108;5.044;2023-03-14T04:49:59;16.40;;;4.38;;
48911;SDS011;34722;52.108;5.044;2023-03-14T04:52:38;15.30;;;2.97;;
48911;SDS011;34722;52.108;5.044;2023-03-14T04:55:16;20.20;;;2.55;;
48911;SDS011;34722;52.108;5.044;2023-03-14T04:57:42;11.90;;;2.50;;
48911;SDS011;34722;52.108;5.044;2023-03-14T05:00:11;10.20;;;2.17;;
48911;SDS011;34722;52.108;5.044;2023-03-14T05:02:42;10.82;;;2.50;;
48911;SDS011;34722;52.108;5.044;2023-03-14T05:05:08;10.70;;;2.90;;
48911;SDS011;34722;52.108;5.044;2023-03-14T05:07:33;9.82;;;3.30;;
48911;SDS011;34722;52.108;5.044;2023-03-14T05:10:05;12.93;;;2.97;;
48911;SDS011;34722;52.108;5.044;2023-03-14T05:12:31;14.32;;;2.75;;
48911;SDS011;34722;52.108;5.044;2023-03-14T05:14:59;16.98;;;3.70;;
48911;SDS011;34722;52.108;5.044;2023-03-14T05:17:35;17.00;;;3.47;;
48911;SDS011;34722;52.108;5.044;2023-03-14T05:20:10;15.68;;;3.55;;
48911;SDS011;34722;52.108;5.044;2023-03-14T05:28:03;18.08;;;4.25;;
48911;SDS011;34722;52.108;5.044;2023-03-14T05:30:29;14.68;;;3.90;;
48911;SDS011;34722;52.108;5.044;2023-03-14T05:32:58;16.70;;;3.88;;
48911;SDS011;34722;52.108;5.044;2023-03-14T05:35:24;12.43;;;3.40;;
48911;SDS011;34722;52.108;5.044;2023-03-14T05:37:50;13.30;;;3.85;;
48911;SDS011;34722;52.108;5.044;2023-03-14T05:40:16;12.90;;;4.20;;
48911;SDS011;34722;52.108;5.044;2023-03-14T05:42:49;8.48;;;4.82;;
48911;SDS011;34722;52.108;5.044;2023-03-14T05:45:14;13.27;;;5.00;;
48911;SDS011;34722;52.108;5.044;2023-03-14T05:47:40;11.90;;;6.07;;
48911;SDS011;34722;52.108;5.044;2023-03-14T05:50:06;15.70;;;5.85;;
48911;SDS011;34722;52.108;5.044;2023-03-14T05:52:33;12.02;;;5.53;;
48911;SDS011;34722;52.108;5.044;2023-03-14T06:36:56;10.35;;;1.30;;
48911;SDS011;34722;52.108;5.044;2023-03-14T06:39:23;5.95;;;1.33;;
48911;SDS011;34722;52.108;5.044;2023-03-14T06:41:49;4.45;;;1.35;;
48911;SDS011;34722;52.108;5.044;2023-03-14T06:44:15;5.07;;;1.60;;
48911;SDS011;34722;52.108;5.044;2023-03-14T06:46:47;10.95;;;3.22;;
48911;SDS011;34722;52.108;5.044;2023-03-14T06:49:15;7.75;;;1.33;;
48911;SDS011;34722;52.108;5.044;2023-03-14T06:51:41;5.90;;;1.38;;
48911;SDS011;34722;52.108;5.044;2023-03-14T06:57:18;6.10;;;1.50;;
48911;SDS011;34722;52.108;5.044;2023-03-14T07:02:50;8.63;;;1.95;;
48911;SDS011;34722;52.108;5.044;2023-03-14T07:12:14;5.80;;;2.28;;
48911;SDS011;34722;52.108;5.044;2023-03-14T07:14:40;7.95;;;2.83;;
48911;SDS011;34722;52.108;5.044;2023-03-14T07:17:05;26.20;;;5.47;;
48911;SDS011;34722;52.108;5.044;2023-03-14T07:19:31;5.72;;;2.50;;
48911;SDS011;34722;52.108;5.044;2023-03-14T07:21:57;5.93;;;2.40;;
48911;SDS011;34722;52.108;5.044;2023-03-14T07:24:23;19.33;;;2.92;;
48911;SDS011;34722;52.108;5.044;2023-03-14T07:26:48;7.95;;;2.58;;
48911;SDS011;34722;52.108;5.044;2023-03-14T07:29:14;8.15;;;2.38;;
48911;SDS011;34722;52.108;5.044;2023-03-14T07:31:40;7.63;;;2.70;;
48911;SDS011;34722;52.108;5.044;2023-03-14T07:34:09;7.43;;;3.55;;
48911;SDS011;34722;52.108;5.044;2023-03-14T07:36:36;8.65;;;3.13;;
48911;SDS011;34722;52.108;5.044;2023-03-14T07:39:02;16.05;;;3.90;;
48911;SDS011;34722;52.108;5.044;2023-03-14T07:41:30;10.48;;;3.33;;
48911;SDS011;34722;52.108;5.044;2023-03-14T07:43:56;9.02;;;3.15;;
48911;SDS011;34722;52.108;5.044;2023-03-14T07:46:22;9.98;;;2.78;;
48911;SDS011;34722;52.108;5.044;2023-03-14T07:48:48;12.50;;;2.13;;
48911;SDS011;34722;52.108;5.044;2023-03-14T07:51:14;14.02;;;2.08;;
48911;SDS011;34722;52.108;5.044;2023-03-14T07:53:39;5.07;;;2.03;;
48911;SDS011;34722;52.108;5.044;2023-03-14T07:56:05;7.25;;;1.80;;
48911;SDS011;34722;52.108;5.044;2023-03-14T07:58:31;8.05;;;1.40;;
48911;SDS011;34722;52.108;5.044;2023-03-14T08:00:58;7.50;;;1.50;;
48911;SDS011;34722;52.108;5.044;2023-03-14T08:03:24;3.40;;;1.60;;
48911;SDS011;34722;52.108;5.044;2023-03-14T08:05:49;3.50;;;1.40;;
48911;SDS011;34722;52.108;5.044;2023-03-14T08:08:16;5.35;;;1.10;;
48911;SDS011;34722;52.108;5.044;2023-03-14T08:10:42;7.18;;;2.05;;
48911;SDS011;34722;52.108;5.044;2023-03-14T08:13:08;15.95;;;2.05;;
48911;SDS011;34722;52.108;5.044;2023-03-14T08:15:35;9.23;;;2.53;;
48911;SDS011;34722;52.108;5.044;2023-03-14T08:18:01;2.47;;;1.00;;
48911;SDS011;34722;52.108;5.044;2023-03-14T08:20:28;3.65;;;1.33;;
48911;SDS011;34722;52.108;5.044;2023-03-14T08:22:58;7.07;;;1.35;;
48911;SDS011;34722;52.108;5.044;2023-03-14T08:25:27;3.95;;;1.05;;
48911;SDS011;34722;52.108;5.044;2023-03-14T08:27:54;10.45;;;1.50;;
48911;SDS011;34722;52.108;5.044;2023-03-14T08:30:20;7.40;;;1.08;;
48911;SDS011;34722;52.108;5.044;2023-03-14T08:32:50;7.97;;;1.42;;
48911;SDS011;34722;52.108;5.044;2023-03-14T08:35:19;12.60;;;2.90;;
48911;SDS011;34722;52.108;5.044;2023-03-14T08:37:44;11.35;;;1.30;;
48911;SDS011;34722;52.108;5.044;2023-03-14T08:40:10;12.38;;;1.00;;
48911;SDS011;34722;52.108;5.044;2023-03-14T08:42:40;6.72;;;0.90;;
48911;SDS011;34722;52.108;5.044;2023-03-14T08:45:06;13.43;;;1.42;;
48911;SDS011;34722;52.108;5.044;2023-03-14T08:47:33;2.72;;;0.82;;
48911;SDS011;34722;52.108;5.044;2023-03-14T08:49:59;8.60;;;1.20;;
48911;SDS011;34722;52.108;5.044;2023-03-14T08:52:30;2.70;;;1.10;;
48911;SDS011;34722;52.108;5.044;2023-03-14T08:57:40;7.63;;;1.25;;
48911;SDS011;34722;52.108;5.044;2023-03-14T09:01:14;4.88;;;1.08;;
48911;SDS011;34722;52.108;5.044;2023-03-14T09:03:18;7.20;;;1.45;;
48911;SDS011;34722;52.108;5.044;2023-03-14T09:05:53;11.73;;;2.00;;
48911;SDS011;34722;52.108;5.044;2023-03-14T09:08:19;12.63;;;1.95;;
48911;SDS011;34722;52.108;5.044;2023-03-14T09:10:51;14.23;;;2.40;;
48911;SDS011;34722;52.108;5.044;2023-03-14T09:13:27;9.10;;;2.63;;
48911;SDS011;34722;52.108;5.044;2023-03-14T09:15:54;6.68;;;1.70;;
48911;SDS011;34722;52.108;5.044;2023-03-14T09:18:23;14.73;;;2.53;;
48911;SDS011;34722;52.108;5.044;2023-03-14T09:20:52;12.57;;;3.33;;
48911;SDS011;34722;52.108;5.044;2023-03-14T09:23:23;16.95;;;3.28;;
48911;SDS011;34722;52.108;5.044;2023-03-14T09:25:54;19.73;;;3.28;;
48911;SDS011;34722;52.108;5.044;2023-03-14T09:28:21;14.68;;;2.65;;
48911;SDS011;34722;52.108;5.044;2023-03-14T09:31:05;12.57;;;2.50;;
48911;SDS011;34722;52.108;5.044;2023-03-14T09:33:32;14.38;;;2.67;;
48911;SDS011;34722;52.108;5.044;2023-03-14T09:35:58;17.40;;;2.85;;
48911;SDS011;34722;52.108;5.044;2023-03-14T09:38:24;17.40;;;2.92;;
48911;SDS011;34722;52.108;5.044;2023-03-14T09:40:51;13.57;;;2.72;;
48911;SDS011;34722;52.108;5.044;2023-03-14T09:43:18;13.50;;;4.43;;
48911;SDS011;34722;52.108;5.044;2023-03-14T09:45:46;22.77;;;4.00;;
48911;SDS011;34722;52.108;5.044;2023-03-14T09:48:20;15.95;;;2.83;;
48911;SDS011;34722;52.108;5.044;2023-03-14T09:50:49;23.80;;;5.88;;
48911;SDS011;34722;52.108;5.044;2023-03-14T09:53:18;18.20;;;3.20;;
48911;SDS011;34722;52.108;5.044;2023-03-14T09:56:01;15.80;;;3.85;;
48911;SDS011;34722;52.108;5.044;2023-03-14T09:58:27;19.27;;;3.63;;
48911;SDS011;34722;52.108;5.044;2023-03-14T10:00:54;18.90;;;3.80;;
48911;SDS011;34722;52.108;5.044;2023-03-14T10:03:26;23.80;;;3.53;;
48911;SDS011;34722;52.108;5.044;2023-03-14T10:06:13;18.90;;;2.95;;
48911;SDS011;34722;52.108;5.044;2023-03-14T10:08:42;24.20;;;3.60;;
48911;SDS011;34722;52.108;5.044;2023-03-14T10:11:16;15.45;;;3.15;;
48911;SDS011;34722;52.108;5.044;2023-03-14T10:16:15;18.52;;;3.72;;
48911;SDS011;34722;52.108;5.044;2023-03-14T10:18:44;16.60;;;4.28;;
48911;SDS011;34722;52.108;5.044;2023-03-14T10:21:26;17.75;;;2.85;;
48911;SDS011;34722;52.108;5.044;2023-03-14T10:23:54;15.38;;;3.45;;
48911;SDS011;34722;52.108;5.044;2023-03-14T10:26:31;15.00;;;2.72;;
48911;SDS011;34722;52.108;5.044;2023-03-14T10:29:03;24.58;;;3.22;;
48911;SDS011;34722;52.108;5.044;2023-03-14T10:31:49;26.13;;;3.53;;
48911;SDS011;34722;52.108;5.044;2023-03-14T10:34:27;23.55;;;3.67;;
48911;SDS011;34722;52.108;5.044;2023-03-14T10:36:58;20.08;;;4.22;;
48911;SDS011;34722;52.108;5.044;2023-03-14T10:39:46;15.07;;;3.75;;
48911;SDS011;34722;52.108;5.044;2023-03-14T10:42:27;20.45;;;3.33;;
48911;SDS011;34722;52.108;5.044;2023-03-14T10:44:59;26.65;;;3.95;;
48911;SDS011;34722;52.108;5.044;2023-03-14T10:47:28;24.30;;;4.90;;
48911;SDS011;34722;52.108;5.044;2023-03-14T10:49:55;24.85;;;5.05;;
48911;SDS011;34722;52.108;5.044;2023-03-14T10:52:25;21.65;;;3.42;;
48911;SDS011;34722;52.108;5.044;2023-03-14T10:55:00;28.55;;;4.00;;
48911;SDS011;34722;52.108;5.044;2023-03-14T10:57:38;23.73;;;3.90;;
48911;SDS011;34722;52.108;5.044;2023-03-14T11:00:05;19.65;;;4.20;;
48911;SDS011;34722;52.108;5.044;2023-03-14T11:05:34;21.40;;;3.65;;
48911;SDS011;34722;52.108;5.044;2023-03-14T11:10:46;16.50;;;5.50;;
48911;SDS011;34722;52.108;5.044;2023-03-14T11:13:22;15.30;;;3.85;;
48911;SDS011;34722;52.108;5.044;2023-03-14T11:24:27;20.52;;;4.45;;
48911;SDS011;34722;52.108;5.044;2023-03-14T11:29:54;17.05;;;4.72;;
48911;SDS011;34722;52.108;5.044;2023-03-14T11:32:36;24.70;;;5.45;;
48911;SDS011;34722;52.108;5.044;2023-03-14T11:38:37;18.10;;;4.88;;
48911;SDS011;34722;52.108;5.044;2023-03-14T11:41:10;15.13;;;3.88;;
48911;SDS011;34722;52.108;5.044;2023-03-14T11:43:40;14.20;;;4.72;;
48911;SDS011;34722;52.108;5.044;2023-03-14T11:46:42;13.05;;;3.58;;
48911;SDS011;34722;52.108;5.044;2023-03-14T11:49:16;15.65;;;4.38;;
48911;SDS011;34722;52.108;5.044;2023-03-14T11:51:51;10.68;;;3.33;;
48911;SDS011;34722;52.108;5.044;2023-03-14T11:57:11;8.88;;;4.07;;
48911;SDS011;34722;52.108;5.044;2023-03-14T12:04:43;13.43;;;3.70;;
48911;SDS011;34722;52.108;5.044;2023-03-14T12:13:10;8.70;;;3.40;;
48911;SDS011;34722;52.108;5.044;2023-03-14T12:15:39;15.60;;;3.80;;
48911;SDS011;34722;52.108;5.044;2023-03-14T12:18:20;13.52;;;4.43;;
48911;SDS011;34722;52.108;5.044;2023-03-14T12:20:54;11.05;;;3.50;;
48911;SDS011;34722;52.108;5.044;2023-03-14T12:23:22;10.98;;;3.50;;
48911;SDS011;34722;52.108;5.044;2023-03-14T12:26:05;10.27;;;4.68;;
48911;SDS011;34722;52.108;5.044;2023-03-14T12:28:33;8.05;;;3.15;;
48911;SDS011;34722;52.108;5.044;2023-03-14T12:39:33;10.48;;;3.30;;
48911;SDS011;34722;52.108;5.044;2023-03-14T12:42:13;6.28;;;2.92;;
48911;SDS011;34722;52.108;5.044;2023-03-14T12:44:47;8.93;;;3.30;;
48911;SDS011;34722;52.108;5.044;2023-03-14T12:49:43;5.88;;;2.72;;
48911;SDS011;34722;52.108;5.044;2023-03-14T12:52:14;8.60;;;2.80;;
48911;SDS011;34722;52.108;5.044;2023-03-14T12:55:17;12.57;;;3.33;;
48911;SDS011;34722;52.108;5.044;2023-03-14T13:00:23;7.85;;;3.17;;
48911;SDS011;34722;52.108;5.044;2023-03-14T13:03:00;4.53;;;2.47;;
48911;SDS011;34722;52.108;5.044;2023-03-14T13:05:40;5.65;;;2.83;;
48911;SDS011;34722;52.108;5.044;2023-03-14T13:08:32;13.02;;;4.13;;
48911;SDS011;34722;52.108;5.044;2023-03-14T13:13:41;7.50;;;2.70;;
48911;SDS011;34722;52.108;5.044;2023-03-14T13:16:18;7.20;;;2.70;;
48911;SDS011;34722;52.108;5.044;2023-03-14T13:18:46;8.45;;;2.90;;
48911;SDS011;34722;52.108;5.044;2023-03-14T13:21:17;13.43;;;2.92;;
48911;SDS011;34722;52.108;5.044;2023-03-14T13:26:39;10.52;;;3.05;;
48911;SDS011;34722;52.108;5.044;2023-03-14T13:29:17;11.13;;;3.70;;
48911;SDS011;34722;52.108;5.044;2023-03-14T13:31:48;10.00;;;3.40;;
48911;SDS011;34722;52.108;5.044;2023-03-14T13:34:19;11.02;;;3.40;;
48911;SDS011;34722;52.108;5.044;2023-03-14T13:36:45;6.65;;;2.80;;
48911;SDS011;34722;52.108;5.044;2023-03-14T13:39:18;12.65;;;3.95;;
48911;SDS011;34722;52.108;5.044;2023-03-14T13:41:47;10.55;;;3.05;;
48911;SDS011;34722;52.108;5.044;2023-03-14T13:44:15;10.07;;;3.13;;
48911;SDS011;34722;52.108;5.044;2023-03-14T13:46:46;11.67;;;3.30;;
48911;SDS011;34722;52.108;5.044;2023-03-14T13:49:12;9.13;;;3.10;;
48911;SDS011;34722;52.108;5.044;2023-03-14T13:51:50;18.65;;;4.13;;
48911;SDS011;34722;52.108;5.044;2023-03-14T13:54:18;10.20;;;3.10;;
48911;SDS011;34722;52.108;5.044;2023-03-14T13:56:45;9.50;;;2.92;;
48911;SDS011;34722;52.108;5.044;2023-03-14T13:59:25;9.38;;;2.63;;
48911;SDS011;34722;52.108;5.044;2023-03-14T14:02:12;7.22;;;2.67;;
48911;SDS011;34722;52.108;5.044;2023-03-14T14:04:40;8.52;;;2.50;;
48911;SDS011;34722;52.108;5.044;2023-03-14T14:09:55;10.23;;;2.53;;
48911;SDS011;34722;52.108;5.044;2023-03-14T14:26:07;10.68;;;3.05;;
48911;SDS011;34722;52.108;5.044;2023-03-14T14:45:44;12.52;;;2.60;;
48911;SDS011;34722;52.108;5.044;2023-03-14T14:48:48;11.30;;;3.08;;
48911;SDS011;34722;52.108;5.044;2023-03-14T15:06:18;8.80;;;2.20;;
48911;SDS011;34722;52.108;5.044;2023-03-14T15:08:56;7.10;;;2.60;;
48911;SDS011;34722;52.108;5.044;2023-03-14T15:11:24;14.57;;;2.60;;
48911;SDS011;34722;52.108;5.044;2023-03-14T15:13:51;2.67;;;1.73;;
48911;SDS011;34722;52.108;5.044;2023-03-14T15:16:30;12.07;;;2.67;;
48911;SDS011;34722;52.108;5.044;2023-03-14T15:19:39;8.70;;;2.53;;
48911;SDS011;34722;52.108;5.044;2023-03-14T15:21:57;7.22;;;2.20;;
48911;SDS011;34722;52.108;5.044;2023-03-14T15:24:24;4.43;;;2.33;;
48911;SDS011;34722;52.108;5.044;2023-03-14T15:26:56;8.30;;;2.80;;
48911;SDS011;34722;52.108;5.044;2023-03-14T15:29:22;5.45;;;2.40;;
48911;SDS011;34722;52.108;5.044;2023-03-14T15:31:53;10.35;;;2.58;;
48911;SDS011;34722;52.108;5.044;2023-03-14T15:34:20;10.17;;;2.83;;
48911;SDS011;34722;52.108;5.044;2023-03-14T15:36:46;4.43;;;1.98;;
48911;SDS011;34722;52.108;5.044;2023-03-14T15:39:15;8.35;;;2.35;;
48911;SDS011;34722;52.108;5.044;2023-03-14T15:41:44;13.05;;;4.93;;
48911;SDS011;34722;52.108;5.044;2023-03-14T15:44:11;8.57;;;2.90;;
48911;SDS011;34722;52.108;5.044;2023-03-14T15:46:47;9.02;;;2.50;;
48911;SDS011;34722;52.108;5.044;2023-03-14T15:49:22;12.93;;;3.05;;
48911;SDS011;34722;52.108;5.044;2023-03-14T15:51:57;8.50;;;2.33;;
48911;SDS011;34722;52.108;5.044;2023-03-14T15:54:29;12.45;;;2.50;;
48911;SDS011;34722;52.108;5.044;2023-03-14T15:56:57;4.80;;;2.72;;
48911;SDS011;34722;52.108;5.044;2023-03-14T15:59:36;15.27;;;2.80;;
48911;SDS011;34722;52.108;5.044;2023-03-14T16:02:02;15.00;;;2.50;;
48911;SDS011;34722;52.108;5.044;2023-03-14T16:04:31;13.32;;;2.90;;
48911;SDS011;34722;52.108;5.044;2023-03-14T16:07:00;12.70;;;2.50;;
48911;SDS011;34722;52.108;5.044;2023-03-14T16:09:29;11.20;;;3.42;;
48911;SDS011;34722;52.108;5.044;2023-03-14T16:12:05;11.70;;;4.13;;
48911;SDS011;34722;52.108;5.044;2023-03-14T16:14:32;12.55;;;3.03;;
48911;SDS011;34722;52.108;5.044;2023-03-14T16:17:04;11.48;;;2.63;;
48911;SDS011;34722;52.108;5.044;2023-03-14T16:19:39;9.70;;;2.67;;
48911;SDS011;34722;52.108;5.044;2023-03-14T16:22:07;13.30;;;3.25;;
48911;SDS011;34722;52.108;5.044;2023-03-14T16:24:42;6.30;;;2.65;;
48911;SDS011;34722;52.108;5.044;2023-03-14T16:27:08;8.73;;;2.08;;
48911;SDS011;34722;52.108;5.044;2023-03-14T16:29:34;10.15;;;2.58;;
48911;SDS011;34722;52.108;5.044;2023-03-14T16:32:00;7.80;;;1.92;;
48911;SDS011;34722;52.108;5.044;2023-03-14T16:34:25;6.07;;;2.20;;
48911;SDS011;34722;52.108;5.044;2023-03-14T16:36:51;7.95;;;1.92;;
48911;SDS011;34722;52.108;5.044;2023-03-14T16:39:17;4.70;;;1.83;;
48911;SDS011;34722;52.108;5.044;2023-03-14T16:41:43;4.30;;;1.92;;
48911;SDS011;34722;52.108;5.044;2023-03-14T16:44:09;9.95;;;1.95;;
48911;SDS011;34722;52.108;5.044;2023-03-14T16:46:35;9.65;;;2.10;;
48911;SDS011;34722;52.108;5.044;2023-03-14T16:49:01;10.27;;;2.45;;
48911;SDS011;34722;52.108;5.044;2023-03-14T16:51:27;3.63;;;2.03;;
48911;SDS011;34722;52.108;5.044;2023-03-14T16:53:53;9.68;;;2.05;;
48911;SDS011;34722;52.108;5.044;2023-03-14T16:56:19;7.32;;;2.33;;
48911;SDS011;34722;52.108;5.044;2023-03-14T16:58:45;8.13;;;2.00;;
48911;SDS011;34722;52.108;5.044;2023-03-14T17:04:29;8.30;;;2.40;;
48911;SDS011;34722;52.108;5.044;2023-03-14T17:06:55;13.07;;;3.95;;
48911;SDS011;34722;52.108;5.044;2023-03-14T17:09:21;8.45;;;2.22;;
48911;SDS011;34722;52.108;5.044;2023-03-14T17:11:46;6.30;;;2.13;;
48911;SDS011;34722;52.108;5.044;2023-03-14T17:14:12;10.65;;;3.30;;
48911;SDS011;34722;52.108;5.044;2023-03-14T17:16:38;8.95;;;2.22;;
48911;SDS011;34722;52.108;5.044;2023-03-14T17:19:03;14.95;;;2.45;;
48911;SDS011;34722;52.108;5.044;2023-03-14T17:21:29;5.38;;;2.10;;
48911;SDS011;34722;52.108;5.044;2023-03-14T17:23:55;9.43;;;2.10;;
48911;SDS011;34722;52.108;5.044;2023-03-14T17:26:33;6.85;;;2.20;;
48911;SDS011;34722;52.108;5.044;2023-03-14T17:28:59;10.25;;;2.22;;
48911;SDS011;34722;52.108;5.044;2023-03-14T17:31:24;10.40;;;2.70;;
48911;SDS011;34722;52.108;5.044;2023-03-14T17:33:50;9.30;;;2.08;;
48911;SDS011;34722;52.108;5.044;2023-03-14T17:36:16;7.68;;;2.20;;
48911;SDS011;34722;52.108;5.044;2023-03-14T17:38:42;10.63;;;3.55;;
48911;SDS011;34722;52.108;5.044;2023-03-14T17:41:11;11.68;;;2.55;;
48911;SDS011;34722;52.108;5.044;2023-03-14T17:43:39;7.95;;;2.30;;
48911;SDS011;34722;52.108;5.044;2023-03-14T17:46:09;9.85;;;2.67;;
48911;SDS011;34722;52.108;5.044;2023-03-14T17:48:40;10.32;;;1.92;;
48911;SDS011;34722;52.108;5.044;2023-03-14T17:51:07;9.85;;;2.35;;
48911;SDS011;34722;52.108;5.044;2023-03-14T17:53:33;13.02;;;2.33;;
48911;SDS011;34722;52.108;5.044;2023-03-14T17:56:02;5.68;;;2.03;;
48911;SDS011;34722;52.108;5.044;2023-03-14T17:58:29;14.68;;;2.22;;
48911;SDS011;34722;52.108;5.044;2023-03-14T18:00:56;8.93;;;3.25;;
48911;SDS011;34722;52.108;5.044;2023-03-14T18:03:31;7.93;;;3.28;;
48911;SDS011;34722;52.108;5.044;2023-03-14T18:05:57;10.52;;;3.60;;
48911;SDS011;34722;52.108;5.044;2023-03-14T18:08:22;10.70;;;2.90;;
48911;SDS011;34722;52.108;5.044;2023-03-14T18:10:51;30.05;;;4.05;;
48911;SDS011;34722;52.108;5.044;2023-03-14T18:13:24;6.03;;;2.33;;
48911;SDS011;34722;52.108;5.044;2023-03-14T18:15:51;23.80;;;4.82;;
48911;SDS011;34722;52.108;5.044;2023-03-14T18:18:17;12.73;;;3.28;;
48911;SDS011;34722;52.108;5.044;2023-03-14T18:20:50;12.88;;;3.47;;